Time;durP1;ratioP1;P1;durP2;ratioP2;P2;SDS_P1;SDS_P2;PMS_P1;PMS_P2;Temp;Humidity;BMP_temperature;BMP_pressure;BME280_temperature;BME280_humidity;BME280_pressure;Samples;Min_cycle;Max_cycle;Signal;HPM_P1;HPM_P2
2021/08/09 00:00:10;;;;;;;;;;;17.80;85.80;;;17.46;75.73;100374.22;4971240;28;20283;-87
2021/08/09 00:02:37;;;;;;;;;;;17.80;85.80;;;17.48;75.60;100371.22;4986529;28;20021;-87
2021/08/09 00:05:06;;;;;;;;;;;17.80;85.80;;;17.47;75.67;100373.13;4989057;28;19926;-88
2021/08/09 00:07:33;;;;;;;;;;;17.90;86.00;;;17.49;75.57;100372.88;4988501;28;19969;-87
2021/08/09 00:10:00;;;;;;;;;;;17.90;85.70;;;17.44;75.87;100375.50;4971437;28;19968;-87
2021/08/09 00:12:27;;;;;;;;;;;17.90;86.10;;;17.45;76.04;100377.19;4987354;28;19930;-87
2021/08/09 00:14:55;;;;;;;;;;;17.80;85.90;;;17.46;75.51;100368.69;4970655;28;20378;-87
2021/08/09 00:17:22;;;;;;;;;;;17.80;85.80;;;17.45;75.79;100367.00;4969969;28;20425;-87
2021/08/09 00:19:49;;;;;;;;;;;17.80;85.80;;;17.44;75.57;100370.84;4988676;28;20009;-87
2021/08/09 00:22:16;;;;;;;;;;;17.80;85.70;;;17.45;75.48;100368.94;4970726;28;20012;-87
2021/08/09 00:24:44;;;;;;;;;;;17.80;85.80;;;17.46;75.41;100376.97;4972062;28;19928;-87
2021/08/09 00:27:11;;;;;;;;;;;17.80;85.80;;;17.47;75.54;100380.53;4987972;28;20453;-86
2021/08/09 00:29:38;;;;;;;;;;;17.80;85.70;;;17.44;75.51;100378.25;4989038;28;20087;-86
2021/08/09 00:32:07;;;;;;;;;;;17.80;85.70;;;17.41;75.45;100374.06;4970956;28;19967;-87
2021/08/09 00:34:34;;;;;;;;;;;17.70;85.80;;;17.40;75.00;100383.38;4972064;28;19925;-87
2021/08/09 00:37:02;;;;;;;;;;;17.70;85.70;;;17.41;75.30;100375.97;4968029;28;20379;-87
2021/08/09 00:39:29;;;;;;;;;;;17.70;85.90;;;17.39;75.17;100374.28;4970669;28;19926;-87
2021/08/09 00:41:59;;;;;;;;;;;17.60;85.80;;;17.36;74.82;100379.41;4970940;28;19969;-86
2021/08/09 00:44:26;;;;;;;;;;;17.60;86.00;;;17.32;74.55;100380.94;4968583;28;20012;-87
2021/08/09 00:46:54;;;;;;;;;;;17.60;86.00;;;17.32;75.42;100384.53;4960355;28;19926;-86
2021/08/09 00:49:23;;;;;;;;;;;17.50;86.30;;;17.29;75.24;100384.19;4971616;28;20732;-87
2021/08/09 00:51:51;;;;;;;;;;;17.50;86.30;;;17.29;75.27;100393.28;4980647;28;19925;-87
2021/08/09 00:54:19;;;;;;;;;;;17.50;86.50;;;17.28;75.07;100388.00;4987319;28;20298;-87
2021/08/09 00:56:46;;;;;;;;;;;17.40;86.50;;;17.25;75.28;100393.94;4987193;28;19929;-86
2021/08/09 00:59:13;;;;;;;;;;;17.40;86.80;;;17.24;75.18;100397.78;4988407;28;19930;-86
2021/08/09 01:01:41;;;;;;;;;;;17.30;86.80;;;17.24;75.15;100386.78;4986511;28;19922;-86
2021/08/09 01:04:10;;;;;;;;;;;17.30;86.80;;;17.24;75.37;100408.78;4987184;28;20653;-87
2021/08/09 01:06:42;;;;;;;;;;;17.30;87.00;;;17.19;75.57;100396.56;4986976;28;20782;-87
2021/08/09 01:09:15;;;;;;;;;;;17.30;87.10;;;17.20;75.33;100398.22;4987879;28;20398;-86
2021/08/09 01:11:49;;;;;;;;;;;17.30;87.20;;;17.18;75.47;100400.38;4987036;28;19956;-87
2021/08/09 01:14:31;;;;;;;;;;;17.30;87.40;;;17.19;75.63;100404.81;4987007;28;19929;-87
2021/08/09 01:16:59;;;;;;;;;;;17.30;87.40;;;17.14;75.50;100410.16;4987525;28;19930;-86
2021/08/09 01:19:52;;;;;;;;;;;17.10;87.40;;;17.10;75.62;100411.69;4988792;28;19925;-87
2021/08/09 01:22:33;;;;;;;;;;;17.10;87.50;;;17.08;75.70;100411.09;4989786;28;19975;-87
2021/08/09 01:25:08;;;;;;;;;;;17.10;87.70;;;17.08;75.72;100405.59;4990756;28;19957;-86
2021/08/09 01:27:37;;;;;;;;;;;17.10;87.70;;;17.09;75.51;100418.25;4990862;28;19932;-86
2021/08/09 01:30:07;;;;;;;;;;;17.10;87.70;;;17.07;75.39;100408.56;4990515;28;19925;-86
2021/08/09 01:32:37;;;;;;;;;;;16.90;87.60;;;17.05;75.41;100417.03;4989614;28;19928;-87
2021/08/09 01:35:07;;;;;;;;;;;17.00;87.70;;;17.05;75.51;100418.97;5005446;28;19948;-87
2021/08/09 01:37:38;;;;;;;;;;;17.00;88.00;;;17.06;75.30;100429.75;4988781;28;20398;-87
2021/08/09 01:40:07;;;;;;;;;;;16.90;88.10;;;17.02;75.53;100427.66;4990225;28;20393;-87
2021/08/09 01:42:38;;;;;;;;;;;16.90;88.20;;;17.01;75.69;100426.81;4990223;28;19948;-87
2021/08/09 01:45:06;;;;;;;;;;;16.90;88.20;;;16.98;75.60;100427.28;4990886;28;19933;-87
2021/08/09 01:47:35;;;;;;;;;;;16.90;88.20;;;16.96;75.75;100433.03;4989741;28;19930;-87
2021/08/09 01:50:04;;;;;;;;;;;16.90;88.30;;;16.97;75.51;100439.34;4990142;28;19925;-87
2021/08/09 01:52:31;;;;;;;;;;;16.80;88.20;;;16.94;75.82;100437.06;4988163;28;19972;-87
2021/08/09 01:54:58;;;;;;;;;;;16.80;88.30;;;16.93;75.87;100440.88;4972704;28;19925;-87
2021/08/09 01:57:26;;;;;;;;;;;16.80;88.40;;;16.92;75.85;100439.19;4971906;28;19961;-86
2021/08/09 01:59:55;;;;;;;;;;;16.80;88.40;;;16.90;75.86;100446.84;4971925;28;19936;-87
2021/08/09 02:02:26;;;;;;;;;;;16.80;88.60;;;16.88;76.04;100446.22;4973205;28;19970;-87
2021/08/09 02:04:54;;;;;;;;;;;16.70;88.70;;;16.86;76.08;100445.59;4970745;28;20021;-86
2021/08/09 02:07:24;;;;;;;;;;;16.70;88.90;;;16.82;76.21;100439.72;4972388;28;20037;-87
2021/08/09 02:09:51;;;;;;;;;;;16.70;89.00;;;16.78;76.39;100441.22;4971721;28;19925;-87
2021/08/09 02:12:19;;;;;;;;;;;16.70;88.90;;;16.77;76.35;100445.03;4990749;28;20448;-86
2021/08/09 02:14:50;;;;;;;;;;;16.70;89.00;;;16.75;76.42;100449.91;4972256;28;20401;-87
2021/08/09 02:17:21;;;;;;;;;;;16.70;89.10;;;16.78;76.50;100444.81;4972748;28;19925;-87
2021/08/09 02:19:52;;;;;;;;;;;16.70;89.20;;;16.81;76.53;100440.75;4972094;28;19980;-87
2021/08/09 02:22:24;;;;;;;;;;;16.70;89.30;;;16.78;76.54;100436.56;4972027;28;19932;-87
2021/08/09 02:24:58;;;;;;;;;;;16.70;89.40;;;16.79;76.82;100429.13;4972964;28;20016;-87
2021/08/09 02:27:29;;;;;;;;;;;16.70;89.40;;;16.75;77.08;100431.53;4987990;28;19926;-87
2021/08/09 02:29:57;;;;;;;;;;;16.80;89.40;;;16.74;77.07;100427.09;4970606;28;19926;-86
2021/08/09 02:32:28;;;;;;;;;;;16.80;89.10;;;16.74;77.09;100424.34;4972667;28;19936;-87
2021/08/09 02:34:59;;;;;;;;;;;16.80;89.20;;;16.77;76.91;100425.78;4971190;28;19980;-86
2021/08/09 02:37:28;;;;;;;;;;;16.80;89.10;;;16.79;76.84;100419.00;4968595;28;20502;-87
2021/08/09 02:39:56;;;;;;;;;;;16.80;89.10;;;16.81;76.69;100419.63;4971224;28;19933;-87
2021/08/09 02:42:23;;;;;;;;;;;16.80;89.10;;;16.81;76.65;100416.00;4971684;28;19980;-87
2021/08/09 02:44:50;;;;;;;;;;;16.70;89.40;;;16.81;76.54;100422.38;4972679;28;19952;-88
2021/08/09 02:47:19;;;;;;;;;;;16.70;89.30;;;16.80;76.72;100415.19;4971482;28;19929;-87
2021/08/09 02:49:49;;;;;;;;;;;16.70;89.30;;;16.80;76.72;100420.69;4971807;28;19956;-87
2021/08/09 02:52:19;;;;;;;;;;;16.70;89.50;;;16.75;76.78;100420.53;4948737;23;1151659;-81
2021/08/09 02:54:47;;;;;;;;;;;16.70;89.60;;;16.74;76.76;100421.59;4982905;28;20396;-82
2021/08/09 02:57:16;;;;;;;;;;;16.60;89.30;;;16.72;76.85;100420.97;4989103;28;19969;-81
2021/08/09 02:59:44;;;;;;;;;;;16.60;89.40;;;16.73;76.89;100422.66;4987868;28;19972;-82
2021/08/09 03:02:13;;;;;;;;;;;16.60;89.60;;;16.75;76.66;100423.28;4994678;28;19961;-82
2021/08/09 03:04:41;;;;;;;;;;;16.60;89.50;;;16.76;77.23;100429.63;4988980;28;20342;-82
2021/08/09 03:07:11;;;;;;;;;;;16.70;89.60;;;16.74;77.04;100421.59;4989501;28;19925;-82
2021/08/09 03:09:40;;;;;;;;;;;16.70;89.80;;;16.74;77.25;100421.59;4989020;28;19930;-81
2021/08/09 03:12:08;;;;;;;;;;;16.70;89.90;;;16.74;77.13;100415.25;4984699;28;19937;-81
2021/08/09 03:14:37;;;;;;;;;;;16.70;89.70;;;16.73;77.19;100419.06;4979076;28;19933;-82
2021/08/09 03:17:05;;;;;;;;;;;16.70;89.70;;;16.71;77.48;100422.03;4988783;28;20007;-82
2021/08/09 03:19:32;;;;;;;;;;;16.80;89.80;;;16.74;77.46;100416.09;4988355;28;19957;-82
2021/08/09 03:22:02;;;;;;;;;;;16.80;89.70;;;16.75;77.65;100434.28;4988173;28;19934;-82
2021/08/09 03:24:33;;;;;;;;;;;16.80;89.80;;;16.74;77.56;100429.84;4989536;28;20177;-82
2021/08/09 03:27:00;;;;;;;;;;;16.80;89.70;;;16.71;77.84;100426.69;4988002;28;19926;-81
2021/08/09 03:29:27;;;;;;;;;;;16.80;89.60;;;16.72;77.69;100434.72;4988813;28;20017;-82
2021/08/09 03:31:55;;;;;;;;;;;16.90;89.60;;;16.73;77.70;100436.38;4988007;28;20661;-81
2021/08/09 03:34:22;;;;;;;;;;;16.80;89.40;;;16.73;78.10;100438.31;4987109;28;20376;-81
2021/08/09 03:36:52;;;;;;;;;;;16.90;89.60;;;16.74;77.75;100442.75;4987911;28;19932;-82
2021/08/09 03:39:20;;;;;;;;;;;16.90;89.30;;;16.75;77.77;100438.91;4987682;28;19929;-81
2021/08/09 03:41:48;;;;;;;;;;;16.90;89.30;;;16.76;77.68;100441.44;4987347;28;19972;-81
2021/08/09 03:44:15;;;;;;;;;;;16.90;89.50;;;16.76;77.75;100440.59;4985731;28;19925;-82
2021/08/09 03:46:43;;;;;;;;;;;16.90;89.40;;;16.73;77.70;100441.06;4987702;28;20276;-81
2021/08/09 03:49:10;;;;;;;;;;;16.90;89.40;;;16.73;77.60;100443.81;4988411;28;19933;-81
2021/08/09 03:51:39;;;;;;;;;;;16.90;89.40;;;16.70;77.80;100439.63;4986943;28;19968;-81
2021/08/09 03:54:08;;;;;;;;;;;16.90;89.30;;;16.71;77.83;100433.03;4987754;28;19948;-81
2021/08/09 03:56:35;;;;;;;;;;;16.90;89.40;;;16.71;77.77;100434.94;4987188;28;19961;-81
2021/08/09 03:59:04;;;;;;;;;;;16.90;89.30;;;16.71;77.75;100433.03;4988163;28;19935;-81
2021/08/09 04:01:37;;;;;;;;;;;16.90;89.20;;;16.71;77.68;100433.03;4986786;28;20342;-81
2021/08/09 04:04:06;;;;;;;;;;;16.90;89.10;;;16.73;77.59;100439.13;4986935;28;19961;-82
2021/08/09 04:06:33;;;;;;;;;;;16.90;89.10;;;16.76;77.55;100426.88;4987196;28;19965;-81
2021/08/09 04:09:00;;;;;;;;;;;16.90;89.30;;;16.73;77.69;100436.38;5003782;28;19930;-81
2021/08/09 04:11:27;;;;;;;;;;;16.90;89.30;;;16.75;77.54;100445.28;4987479;28;19925;-82
2021/08/09 04:13:56;;;;;;;;;;;16.90;89.40;;;16.75;77.71;100442.53;4986921;28;19933;-82
2021/08/09 04:16:26;;;;;;;;;;;16.90;89.40;;;16.76;77.62;100444.19;4987702;28;19932;-82
2021/08/09 04:18:54;;;;;;;;;;;16.90;89.20;;;16.71;77.65;100443.19;4988159;28;20406;-82
2021/08/09 04:21:22;;;;;;;;;;;16.90;89.30;;;16.72;77.57;100439.38;4987654;28;20365;-82
2021/08/09 04:23:49;;;;;;;;;;;16.90;89.10;;;16.71;77.53;100443.19;4988524;28;20345;-81
2021/08/09 04:26:18;;;;;;;;;;;16.90;89.00;;;16.72;77.50;100440.22;4968288;28;19929;-81
2021/08/09 04:28:46;;;;;;;;;;;16.90;89.10;;;16.73;77.65;100438.31;4988100;28;20033;-81
2021/08/09 04:31:13;;;;;;;;;;;16.90;89.20;;;16.72;77.77;100439.38;4987476;28;19949;-82
2021/08/09 04:33:43;;;;;;;;;;;16.90;89.30;;;16.73;77.58;100436.38;4985662;28;20008;-81
2021/08/09 04:36:10;;;;;;;;;;;16.90;89.30;;;16.76;77.84;100435.13;4987482;28;20390;-82
2021/08/09 04:38:38;;;;;;;;;;;16.90;89.50;;;16.72;77.80;100431.97;4984708;28;19934;-81
2021/08/09 04:41:07;;;;;;;;;;;16.90;89.50;;;16.75;77.83;100436.16;4987318;28;20386;-82
2021/08/09 04:43:37;;;;;;;;;;;16.90;89.60;;;16.74;77.89;100438.09;4987929;28;19964;-81
2021/08/09 04:46:05;;;;;;;;;;;16.90;89.60;;;16.73;77.95;100439.13;4987222;28;19944;-89
2021/08/09 04:48:35;;;;;;;;;;;16.90;89.60;;;16.73;78.09;100435.56;4988288;28;20698;-90
2021/08/09 04:51:03;;;;;;;;;;;16.90;89.70;;;16.71;78.10;100433.03;4987594;28;19929;-87
2021/08/09 04:53:32;;;;;;;;;;;16.90;89.80;;;16.71;78.15;100438.53;4990715;28;19926;-87
2021/08/09 04:55:59;;;;;;;;;;;16.90;89.90;;;16.71;78.19;100444.03;4991096;28;19922;-88
2021/08/09 04:58:27;;;;;;;;;;;16.90;89.70;;;16.72;78.49;100437.47;4990625;28;19932;-87
2021/08/09 05:00:54;;;;;;;;;;;17.00;89.80;;;16.72;78.32;100440.22;4989157;28;19928;-86
2021/08/09 05:03:21;;;;;;;;;;;17.00;89.70;;;16.74;78.60;100449.06;4992812;28;20419;-87
2021/08/09 05:05:50;;;;;;;;;;;17.00;89.70;;;16.75;78.53;100449.91;4990073;28;20389;-88
2021/08/09 05:08:18;;;;;;;;;;;17.00;89.80;;;16.75;78.57;100450.78;4989883;28;19925;-87
2021/08/09 05:10:46;;;;;;;;;;;17.10;89.40;;;16.75;78.55;100452.66;4988030;28;19926;-87
2021/08/09 05:13:14;;;;;;;;;;;17.10;89.50;;;16.79;79.09;100457.50;4997148;28;20413;-87
2021/08/09 05:15:41;;;;;;;;;;;17.20;89.30;;;16.70;79.74;100458.84;4990598;28;19926;-86
2021/08/09 05:18:13;;;;;;;;;;;17.30;89.50;;;16.74;79.57;100462.81;4989698;28;19988;-87
2021/08/09 05:20:40;;;;;;;;;;;17.30;88.90;;;16.75;79.32;100456.28;4991031;28;20638;-86
2021/08/09 05:23:08;;;;;;;;;;;17.50;88.80;;;16.76;79.53;100460.69;4990116;28;19929;-86
2021/08/09 05:25:36;;;;;;;;;;;17.50;88.60;;;16.80;79.50;100464.66;4991059;28;20394;-87
2021/08/09 05:28:04;;;;;;;;;;;17.50;88.40;;;16.81;79.17;100466.34;4991732;28;20453;-87
2021/08/09 05:30:31;;;;;;;;;;;17.50;87.90;;;16.83;79.66;100468.91;4989490;28;19925;-87
2021/08/09 05:33:00;;;;;;;;;;;17.50;88.50;;;16.81;79.64;100476.47;4990340;28;19926;-86
2021/08/09 05:35:27;;;;;;;;;;;17.50;88.30;;;16.79;79.85;100473.97;4989219;28;19929;-87
2021/08/09 05:37:55;;;;;;;;;;;17.50;88.70;;;16.83;79.80;100468.91;4989952;28;19965;-88
2021/08/09 05:40:22;;;;;;;;;;;17.50;88.80;;;16.84;79.99;100464.25;4990900;28;19925;-87
2021/08/09 05:42:51;;;;;;;;;;;17.50;88.90;;;16.87;79.94;100466.50;4990102;28;20028;-88
2021/08/09 05:45:20;;;;;;;;;;;17.50;89.00;;;16.86;80.34;100478.59;4990884;28;19937;-91
2021/08/09 05:47:48;;;;;;;;;;;17.50;89.30;;;16.85;80.27;100471.41;4989789;28;19929;-87
2021/08/09 05:50:15;;;;;;;;;;;17.50;89.30;;;16.85;80.96;100465.91;4990763;28;19933;-87
2021/08/09 05:52:52;;;;;;;;;;;17.50;89.50;;;16.89;80.67;100473.50;4989173;28;20298;-88
2021/08/09 05:55:23;;;;;;;;;;;17.60;89.20;;;16.86;81.14;100470.34;4992178;28;19926;-86
2021/08/09 05:57:52;;;;;;;;;;;17.70;89.30;;;16.90;81.20;100468.81;4988980;28;19922;-84
2021/08/09 06:00:21;;;;;;;;;;;17.80;88.80;;;16.93;81.19;100462.88;4989336;28;19929;-90
2021/08/09 06:02:54;;;;;;;;;;;17.90;88.30;;;16.97;81.11;100475.09;4989504;28;19925;-88
2021/08/09 06:05:40;;;;;;;;;;;18.10;87.90;;;16.97;81.00;100469.59;4990496;28;19922;-88
2021/08/09 06:08:08;;;;;;;;;;;18.10;87.50;;;17.00;80.85;100463.63;4988200;28;19932;-91
2021/08/09 06:10:35;;;;;;;;;;;18.10;87.30;;;17.02;80.30;100467.00;4991346;28;19972;-90
2021/08/09 06:13:07;;;;;;;;;;;18.10;87.10;;;17.05;80.13;100472.03;4990072;28;19926;-90
2021/08/09 06:15:35;;;;;;;;;;;18.00;87.20;;;17.07;80.26;100475.41;4986247;28;19953;-90
2021/08/09 06:18:02;;;;;;;;;;;18.00;87.50;;;17.07;80.53;100475.41;4988810;28;20012;-89
2021/08/09 06:20:31;;;;;;;;;;;18.00;88.00;;;17.03;80.17;100474.19;4996335;28;19949;-89
2021/08/09 06:22:59;;;;;;;;;;;17.90;87.60;;;17.06;80.46;100476.47;4994594;28;19936;-89
2021/08/09 06:25:26;;;;;;;;;;;17.90;88.10;;;17.07;80.27;100480.06;4980631;28;19925;-89
2021/08/09 06:27:54;;;;;;;;;;;17.90;88.10;;;17.10;80.38;100477.69;4982468;28;19925;-90
2021/08/09 06:30:23;;;;;;;;;;;17.80;88.50;;;17.10;80.29;100480.44;4987239;28;20682;-90
2021/08/09 06:32:50;;;;;;;;;;;17.80;88.90;;;17.09;80.57;100472.44;4989331;28;20008;-92
2021/08/09 06:35:18;;;;;;;;;;;17.80;89.10;;;17.11;80.42;100479.38;4989591;28;19932;-91
2021/08/09 06:37:45;;;;;;;;;;;17.80;89.10;;;17.09;80.81;100469.69;4984306;28;20449;-91
2021/08/09 06:40:13;;;;;;;;;;;17.70;89.50;;;17.09;80.55;100478.75;5019558;28;19952;-90
2021/08/09 06:42:41;;;;;;;;;;;17.70;89.10;;;17.10;80.47;100479.63;4997596;28;19933;-89
2021/08/09 06:45:14;;;;;;;;;;;17.70;89.20;;;17.11;80.50;100484.88;4990596;28;19926;-89
2021/08/09 06:47:42;;;;;;;;;;;17.70;89.50;;;17.10;81.01;100491.44;4987538;28;19925;-91
2021/08/09 06:50:10;;;;;;;;;;;17.70;89.90;;;17.11;81.13;100493.13;4971311;28;20291;-92
2021/08/09 06:52:37;;;;;;;;;;;17.70;90.00;;;17.12;81.59;100491.22;5002626;28;19980;-91
2021/08/09 06:55:06;;;;;;;;;;;17.70;90.80;;;17.09;81.91;100495.25;4990664;28;19925;-92
2021/08/09 06:57:36;;;;;;;;;;;17.70;90.70;;;17.05;82.45;100498.69;4988432;28;19922;-88
2021/08/09 07:00:04;;;;;;;;;;;17.70;90.60;;;17.07;82.37;100502.91;4987189;28;19968;-87
2021/08/09 07:02:31;;;;;;;;;;;17.80;90.60;;;17.09;82.21;100500.75;4988651;28;19976;-87
2021/08/09 07:05:01;;;;;;;;;;;17.80;90.30;;;17.10;82.52;100496.94;4988760;28;19933;-88
2021/08/09 07:07:28;;;;;;;;;;;17.80;90.50;;;17.10;82.21;100496.94;4986064;28;20385;-89
2021/08/09 07:09:55;;;;;;;;;;;17.80;90.10;;;17.12;82.22;100494.81;4988417;28;19929;-90
2021/08/09 07:12:23;;;;;;;;;;;17.90;90.40;;;17.11;82.15;100498.63;4988679;28;20446;-93
2021/08/09 07:14:50;;;;;;;;;;;17.90;90.10;;;17.13;82.10;100501.13;4988622;28;19922;-88
2021/08/09 07:17:18;;;;;;;;;;;17.90;90.00;;;17.15;82.33;100499.88;4988052;28;19930;-88
2021/08/09 07:19:45;;;;;;;;;;;17.90;90.00;;;17.17;82.36;100503.22;4988707;28;19925;-88
2021/08/09 07:22:14;;;;;;;;;;;18.00;90.00;;;17.18;82.72;100501.31;4988455;28;20386;-86
2021/08/09 07:24:41;;;;;;;;;;;18.00;90.00;;;17.19;83.50;100500.22;4990511;28;19976;-86
2021/08/09 07:27:08;;;;;;;;;;;18.10;90.20;;;17.20;83.07;100505.50;4988041;28;19937;-88
2021/08/09 07:29:36;;;;;;;;;;;18.20;89.80;;;17.20;82.60;100505.50;4988426;28;19921;-87
2021/08/09 07:32:03;;;;;;;;;;;18.30;88.90;;;17.24;82.50;100507.81;4987601;28;19926;-89
2021/08/09 07:34:30;;;;;;;;;;;18.50;88.30;;;17.25;82.99;100499.34;4985254;28;19932;-86
2021/08/09 07:36:58;;;;;;;;;;;18.70;87.70;;;17.32;83.40;100496.47;4988604;28;19937;-86
2021/08/09 07:39:28;;;;;;;;;;;19.00;86.90;;;17.39;83.24;100505.50;4989368;28;19980;-86
2021/08/09 07:41:55;;;;;;;;;;;19.30;85.40;;;17.45;83.29;100504.56;4988073;28;19926;-87
2021/08/09 07:44:23;;;;;;;;;;;19.70;84.70;;;17.55;82.81;100506.78;4988817;28;19932;-87
2021/08/09 07:46:51;;;;;;;;;;;19.90;83.60;;;17.58;82.33;100504.41;4987606;28;19928;-86
2021/08/09 07:49:18;;;;;;;;;;;20.10;82.40;;;17.68;83.60;100505.78;4988052;28;20406;-87
2021/08/09 07:51:46;;;;;;;;;;;20.20;82.60;;;17.73;83.31;100497.69;4987474;28;19922;-87
2021/08/09 07:54:13;;;;;;;;;;;20.40;82.00;;;17.77;83.06;100498.88;4988415;28;20024;-87
2021/08/09 07:56:41;;;;;;;;;;;20.30;81.70;;;17.78;81.09;100500.53;4987689;28;20012;-86
2021/08/09 07:59:09;;;;;;;;;;;20.40;80.70;;;17.81;81.59;100497.34;4987911;28;20378;-87
2021/08/09 08:01:36;;;;;;;;;;;20.40;81.20;;;17.85;81.60;100493.06;4986000;28;19976;-88
2021/08/09 08:04:04;;;;;;;;;;;20.40;81.20;;;17.90;80.91;100498.72;4987793;28;19932;-88
2021/08/09 08:06:33;;;;;;;;;;;20.50;80.60;;;17.94;81.83;100496.34;4987491;28;19921;-87
2021/08/09 08:09:00;;;;;;;;;;;20.60;79.90;;;18.03;81.28;100503.22;4988913;28;19925;-90
2021/08/09 08:11:29;;;;;;;;;;;20.90;79.50;;;18.13;81.50;100500.72;4988759;28;20714;-89
2021/08/09 08:13:58;;;;;;;;;;;21.00;78.80;;;18.23;80.56;100497.38;4988189;28;20453;-88
2021/08/09 08:16:25;;;;;;;;;;;21.10;78.80;;;18.31;82.76;100491.53;4986618;28;20035;-89
2021/08/09 08:18:52;;;;;;;;;;;21.20;78.80;;;18.40;82.00;100504.97;4987997;28;19933;-89
2021/08/09 08:21:21;;;;;;;;;;;21.40;78.30;;;18.50;81.79;100505.22;4987188;28;19925;-89
2021/08/09 08:23:48;;;;;;;;;;;21.50;78.10;;;18.57;80.15;100492.19;4989143;28;19934;-91
2021/08/09 08:26:15;;;;;;;;;;;21.60;76.70;;;18.66;79.79;100501.78;4989235;28;20461;-90
2021/08/09 08:28:42;;;;;;;;;;;21.70;76.50;;;18.68;79.90;100499.63;4993302;28;19929;-92
2021/08/09 08:31:12;;;;;;;;;;;21.70;76.50;;;18.69;78.54;100503.22;4991880;28;19926;-80
2021/08/09 08:33:39;;;;;;;;;;;21.70;75.90;;;18.68;78.30;100505.13;4992195;28;19937;-86
2021/08/09 08:36:06;;;;;;;;;;;21.60;75.30;;;18.71;78.73;100504.63;4991173;28;19980;-87
2021/08/09 08:38:35;;;;;;;;;;;21.60;76.40;;;18.72;78.38;100500.81;4991069;28;19957;-86
2021/08/09 08:41:04;;;;;;;;;;;21.60;76.40;;;18.72;78.10;100502.75;4991462;28;19922;-87
2021/08/09 08:43:32;;;;;;;;;;;21.50;76.30;;;18.72;78.51;100495.31;4988794;28;19922;-87
2021/08/09 08:46:02;;;;;;;;;;;21.50;76.40;;;18.70;75.53;100491.94;4989179;28;19925;-86
2021/08/09 08:48:32;;;;;;;;;;;21.40;75.50;;;18.75;76.86;100505.88;4991254;28;19926;-86
2021/08/09 08:58:25;;;;;;;;;;;21.60;76.30;;;19.00;78.24;100499.31;4927517;29;19926;-93
2021/08/09 09:01:05;;;;;;;;;;;21.70;76.50;;;19.12;77.69;100502.03;5014690;28;20583;-91
2021/08/09 09:03:52;;;;;;;;;;;21.80;76.00;;;19.13;75.35;100498.19;4995366;28;20374;-94
2021/08/09 09:07:20;;;;;;;;;;;21.80;74.80;;;19.20;76.07;100500.84;5008544;28;19925;-92
2021/08/09 09:10:21;;;;;;;;;;;21.80;75.60;;;19.24;75.33;100497.34;4958891;28;20031;-94
2021/08/09 09:16:27;;;;;;;;;;;21.70;75.50;;;19.18;75.95;100495.56;5219776;23;19932;-90
2021/08/09 09:50:45;;;;;;;;;;;21.60;74.50;;;19.39;73.60;100496.84;6035279;23;19931;-91
2021/08/09 09:55:58;;;;;;;;;;;21.70;74.90;;;19.34;74.80;100499.47;5302423;23;19922;-91
2021/08/09 09:58:30;;;;;;;;;;;21.60;75.80;;;19.28;73.86;100500.44;4991965;28;20025;-93
2021/08/09 10:01:01;;;;;;;;;;;21.40;76.00;;;19.25;74.63;100498.19;4971638;28;20024;-96
2021/08/09 10:03:30;;;;;;;;;;;21.20;76.90;;;19.20;75.94;100498.91;4991016;28;19929;-93
2021/08/09 10:05:59;;;;;;;;;;;21.00;78.70;;;19.17;76.69;100493.03;4990877;28;19936;-91
2021/08/09 10:08:28;;;;;;;;;;;20.90;79.80;;;19.17;77.01;100504.91;4992717;28;19926;-88
2021/08/09 10:10:57;;;;;;;;;;;20.90;80.10;;;19.14;78.04;100500.72;4973221;28;19962;-87
2021/08/09 10:13:24;;;;;;;;;;;20.90;80.70;;;19.13;77.69;100499.06;4991162;28;20466;-86
2021/08/09 10:15:55;;;;;;;;;;;20.80;80.30;;;19.13;76.71;100500.94;4992983;28;19926;-91
2021/08/09 11:40:37;;;;;;;;;;;22.70;67.30;;;20.24;68.50;100497.13;4988575;28;19925;-89
2021/08/09 11:43:04;;;;;;;;;;;22.80;68.50;;;20.25;69.22;100499.63;4972052;28;20019;-88
2021/08/09 11:45:31;;;;;;;;;;;22.80;69.10;;;20.28;68.44;100504.66;4973261;28;19999;-89
2021/08/09 11:47:58;;;;;;;;;;;22.90;69.10;;;20.31;68.19;100509.72;4985588;28;20016;-89
2021/08/09 11:50:26;;;;;;;;;;;22.90;68.60;;;20.31;66.43;100498.66;4970831;28;19926;-90
2021/08/09 11:52:53;;;;;;;;;;;23.00;67.40;;;20.30;65.03;100505.25;4970930;28;20488;-89
2021/08/09 11:55:21;;;;;;;;;;;23.00;66.30;;;20.31;66.47;100515.22;4972406;28;19925;-90
2021/08/09 11:57:49;;;;;;;;;;;23.00;66.00;;;20.31;66.42;100515.22;4988823;28;19929;-89
2021/08/09 12:00:17;;;;;;;;;;;23.00;66.80;;;20.30;66.13;100505.25;4972089;28;19929;-90
2021/08/09 12:03:14;;;;;;;;;;;23.00;66.60;;;20.34;64.93;100497.31;4971069;28;19921;-89
2021/08/09 12:21:07;;;;;;;;;;;23.30;67.20;;;20.60;65.09;100512.44;5628994;23;19979;-81
2021/08/09 12:23:39;;;;;;;;;;;23.30;64.90;;;20.55;66.02;100514.25;5003148;28;19921;-93
2021/08/09 12:38:39;;;;;;;;;;;23.00;66.20;;;20.36;67.33;100513.63;5091784;23;19925;-92
2021/08/09 12:41:07;;;;;;;;;;;23.00;67.20;;;20.33;66.02;100511.38;4989059;28;19952;-91
2021/08/09 12:43:41;;;;;;;;;;;22.90;67.00;;;20.25;66.11;100515.38;5007497;28;19921;-86
2021/08/09 12:46:09;;;;;;;;;;;22.70;67.40;;;20.20;67.91;100518.91;5007740;28;20286;-87
2021/08/09 12:48:36;;;;;;;;;;;22.60;69.30;;;20.16;66.50;100517.69;5008851;28;19925;-87
2021/08/09 12:51:03;;;;;;;;;;;22.40;68.30;;;20.12;66.89;100522.03;5007161;28;19931;-88
2021/08/09 12:53:30;;;;;;;;;;;22.20;69.80;;;20.07;66.81;100521.97;5007112;28;19921;-88
2021/08/09 12:55:58;;;;;;;;;;;22.10;70.80;;;20.04;67.71;100515.00;4990798;28;20370;-88
2021/08/09 12:58:25;;;;;;;;;;;22.00;71.20;;;20.06;67.56;100523.88;5008042;28;19991;-87
2021/08/09 13:00:53;;;;;;;;;;;22.10;70.60;;;20.12;66.82;100516.53;4990777;28;20444;-89
2021/08/09 13:03:22;;;;;;;;;;;22.30;69.50;;;20.21;66.09;100517.78;5006990;28;20011;-91
2021/08/09 13:05:50;;;;;;;;;;;22.50;68.10;;;20.32;67.42;100521.59;5008462;28;19929;-91
2021/08/09 13:08:21;;;;;;;;;;;22.70;68.30;;;20.37;66.26;100515.31;5004967;28;19988;-90
2021/08/09 13:10:51;;;;;;;;;;;22.80;67.40;;;20.38;66.13;100512.28;5008061;28;19926;-84
2021/08/09 13:13:20;;;;;;;;;;;22.80;67.30;;;20.38;68.26;100514.22;5007781;28;19925;-86
2021/08/09 13:15:47;;;;;;;;;;;22.80;68.30;;;20.35;64.99;100514.72;5011926;28;19929;-88
2021/08/09 13:18:14;;;;;;;;;;;22.80;66.90;;;20.33;64.18;100511.38;5010245;28;19991;-88
2021/08/09 13:20:41;;;;;;;;;;;22.90;66.40;;;20.36;66.63;100513.63;5011629;28;20016;-88
2021/08/09 13:23:08;;;;;;;;;;;22.90;66.70;;;20.40;67.24;100501.81;5010788;28;20008;-87
2021/08/09 13:25:35;;;;;;;;;;;23.00;67.40;;;20.42;64.74;100510.69;5012104;28;20024;-87
2021/08/09 13:28:02;;;;;;;;;;;23.00;65.40;;;20.44;67.39;100507.69;5010578;28;20022;-87
2021/08/09 13:30:31;;;;;;;;;;;23.00;66.80;;;20.43;65.42;100509.63;5011890;28;19925;-87
2021/08/09 13:32:58;;;;;;;;;;;23.10;66.30;;;20.46;65.91;100497.22;5008560;28;20390;-88
2021/08/09 13:35:25;;;;;;;;;;;23.10;65.80;;;20.46;64.38;100500.81;5011412;28;19935;-87
2021/08/09 13:37:52;;;;;;;;;;;23.10;65.50;;;20.48;65.06;100506.09;5010574;28;19971;-86
2021/08/09 13:40:19;;;;;;;;;;;23.00;66.30;;;20.52;64.33;100507.28;5010420;28;19965;-86
2021/08/09 13:42:46;;;;;;;;;;;22.90;65.50;;;20.47;63.79;100501.69;4992753;28;19925;-86
2021/08/09 13:45:13;;;;;;;;;;;22.90;65.10;;;20.49;64.78;100488.44;5011604;28;20402;-86
2021/08/09 13:47:42;;;;;;;;;;;22.90;65.70;;;20.51;63.15;100500.09;5010042;28;20550;-86
2021/08/09 13:50:09;;;;;;;;;;;22.90;65.00;;;20.51;64.30;100491.78;5011514;28;19925;-85
2021/08/09 13:52:36;;;;;;;;;;;23.00;65.20;;;20.46;63.47;100498.03;5009698;28;19979;-86